This is the latest recevied weather packets stored in our database for station/object LRBS. If no packets are shown the sender has not sent any weather packets the latest 10 day(s).
| Time | Temp. | Humidity | Pressure | Rain* | Wind** | Luminosity | Snow |
|---|---|---|---|---|---|---|---|
| 1787851994 | 18.89° C | 83% | 1019 hPa | - | - | - | - |
| 1787851088 | 21.11° C | 73% | 1019 hPa | - | - | - | - |
| 1787850196 | 21.11° C | 73% | 1019 hPa | - | - | - | - |
| 1787849288 | 23.89° C | 61% | 1018 hPa | - | - | - | - |
| 1787848394 | 23.89° C | 61% | 1018 hPa | - | - | - | - |
| 1787847491 | 23.89° C | 61% | 1018 hPa | - | - | - | - |
| 1787846594 | 23.89° C | 61% | 1018 hPa | - | - | - | - |
| 1787845694 | 25° C | 61% | 1017 hPa | - | - | - | - |
| 1787844794 | 25° C | 61% | 1017 hPa | - | - | - | - |
| 1787843894 | 26.11° C | 58% | 1017 hPa | - | - | - | - |
| 1787842994 | 26.11° C | 58% | 1017 hPa | - | - | - | - |
| 1787842094 | 27.22° C | 54% | 1017 hPa | - | - | - | - |
| 1787841195 | 27.22° C | 54% | 1017 hPa | - | - | - | - |
| 1787840294 | 27.22° C | 54% | 1017 hPa | - | - | - | - |
| 1787839396 | 27.22° C | 54% | 1017 hPa | - | - | - | - |
| 1787838494 | 26.11° C | 58% | 1018 hPa | - | - | - | - |
| 1787837595 | 26.11° C | 58% | 1018 hPa | - | - | - | - |
| 1787836696 | 26.11° C | 54% | 1018 hPa | - | - | - | - |
| 1787835795 | 26.11° C | 54% | 1018 hPa | - | - | - | - |
| 1787834904 | 27.22° C | 54% | 1018 hPa | - | - | - | - |
| 1787833996 | 27.22° C | 54% | 1018 hPa | - | - | - | - |
| 1787833096 | 27.22° C | 54% | 1018 hPa | - | - | - | - |
| 1787832195 | 27.22° C | 54% | 1018 hPa | - | - | - | - |
| 1787831294 | 25° C | 61% | 1018 hPa | - | - | - | - |
| 1787830396 | 25° C | 61% | 1018 hPa | - | - | - | - |
* Rain since midnight (hover to see other rain measurements)
** Current wind speed in m/s (hover to see current wind gust speed)